Sandia, Texas
Current Conditions -  °F | °C
As of 6:56 PM on Thursday 18 Dec 2014 (Local Time) from KNOG Reporting Station
Overcast Overcast  
Wind Chill: 67°   Ceiling: 3000
Heat Index: 67°   Visibility: 10mi
Dew Point: 65°   Wind: 3mph
Humidity: 93%   Direction: 30°NNE
Pressure: 29.99"   Gusts: NA
Location:  28.02°N, 97.88°W
Report Text: KNOG 190056Z AUTO 03003KT 10SM FEW023 BKN030 OVC047 19/18 A2999 RMK AO2 RAE35 SLP135 P0000 T01940183 $
Loading
Personal Weather Stations






























Interactive Weather Map New forecast layout! Learn more

10-Day Weather Forecast

Advertisements
Track Severe Weather on mobile